Time;durP1;ratioP1;P1;durP2;ratioP2;P2;SDS_P1;SDS_P2;PMS_P1;PMS_P2;Temp;Humidity;BMP_temperature;BMP_pressure;BME280_temperature;BME280_humidity;BME280_pressure;Samples;Min_cycle;Max_cycle;Signal;HPM_P1;HPM_P2
2022/01/27 06:48:18;;;;;;;19.10;10.38;;;;;;;;;;10547532;27;20380;-86
2022/01/27 06:53:19;;;;;;;19.17;11.00;;;;;;;;;;10544615;28;20079;-86
2022/01/27 06:58:20;;;;;;;18.40;10.43;;;;;;;;;;10546341;28;20406;-86
2022/01/27 07:03:21;;;;;;;19.60;11.80;;;;;;;;;;10548737;28;20100;-84
2022/01/27 07:08:22;;;;;;;21.40;12.93;;;;;;;;;;10548899;28;20103;-85
2022/01/27 07:13:23;;;;;;;15.15;9.90;;;;;;;;;;10548812;28;20100;-86
2022/01/27 07:18:24;;;;;;;16.67;11.82;;;;;;;;;;10547452;28;20379;-86
2022/01/27 07:23:25;;;;;;;;;;;;;;;;;;10549096;28;20121;-86
2022/01/27 07:28:26;;;;;;;15.20;10.23;;;;;;;;;;10547468;28;19952;-86
2022/01/27 07:33:27;;;;;;;;;;;;;;;;;;10547564;28;20263;-86
2022/01/27 07:38:28;;;;;;;18.48;12.50;;;;;;;;;;10545293;28;19905;-86
2022/01/27 07:43:29;;;;;;;20.90;14.45;;;;;;;;;;10545938;28;20029;-85
2022/01/27 07:48:30;;;;;;;17.63;11.00;;;;;;;;;;10585849;27;20027;-85
2022/01/27 07:53:31;;;;;;;11.10;6.97;;;;;;;;;;10591355;28;20474;-85
2022/01/27 07:58:38;;;;;;;12.90;8.18;;;;;;;;;;10567544;28;20080;-85
2022/01/27 08:03:39;;;;;;;9.68;5.75;;;;;;;;;;10560780;28;20039;-80
2022/01/27 08:08:40;;;;;;;;;;;;;;;;;;10559316;28;20034;-83
2022/01/27 08:13:41;;;;;;;13.32;8.43;;;;;;;;;;10564943;28;19914;-85
2022/01/27 08:18:42;;;;;;;;;;;;;;;;;;10563650;28;20021;-84
2022/01/27 08:23:44;;;;;;;12.25;7.07;;;;;;;;;;10564645;28;19904;-84
2022/01/27 08:28:53;;;;;;;13.77;10.40;;;;;;;;;;10563740;28;20027;-83
2022/01/27 08:33:54;;;;;;;13.68;9.30;;;;;;;;;;10565455;28;20030;-84
2022/01/27 08:38:55;;;;;;;13.70;9.32;;;;;;;;;;10571284;28;20028;-82
2022/01/27 08:43:56;;;;;;;14.20;10.63;;;;;;;;;;10591203;28;20040;-82
2022/01/27 08:48:57;;;;;;;15.40;8.77;;;;;;;;;;10592536;28;20083;-82
2022/01/27 08:53:58;;;;;;;14.80;9.63;;;;;;;;;;10581417;28;20035;-83
2022/01/27 08:58:59;;;;;;;14.63;9.27;;;;;;;;;;10564405;28;20038;-83
2022/01/27 09:04:00;;;;;;;14.32;10.20;;;;;;;;;;10563558;28;20028;-83
2022/01/27 09:09:01;;;;;;;12.57;8.52;;;;;;;;;;10564420;28;20020;-84
2022/01/27 09:14:03;;;;;;;12.55;9.35;;;;;;;;;;10566241;28;20055;-84
2022/01/27 09:19:04;;;;;;;15.10;10.55;;;;;;;;;;10446230;22;20058;-83
2022/01/27 09:24:05;;;;;;;;;;;;;;;;;;10357569;28;20105;-83
2022/01/27 09:29:06;;;;;;;13.82;9.80;;;;;;;;;;10352318;28;19912;-82
2022/01/27 09:34:13;;;;;;;15.00;9.45;;;;;;;;;;10366371;28;20543;-85
2022/01/27 09:39:14;;;;;;;14.68;10.82;;;;;;;;;;10362908;28;20476;-82
2022/01/27 09:44:16;;;;;;;16.38;11.93;;;;;;;;;;10366692;28;20088;-82
2022/01/27 09:49:29;;;;;;;9.27;7.03;;;;;;;;;;10361515;28;20460;-81
2022/01/27 09:54:30;;;;;;;10.18;7.07;;;;;;;;;;10349606;28;20563;-81
2022/01/27 09:59:31;;;;;;;12.00;9.38;;;;;;;;;;10365456;28;20092;-80
2022/01/27 10:04:43;;;;;;;10.40;7.53;;;;;;;;;;10368028;28;20519;-81
2022/01/27 10:09:43;;;;;;;;;;;;;;;;;;10371795;28;20050;-82
2022/01/27 10:14:44;;;;;;;17.50;12.95;;;;;;;;;;10353494;28;19909;-82
2022/01/27 10:19:53;;;;;;;13.75;10.20;;;;;;;;;;10397103;28;20048;-82
2022/01/27 10:25:01;;;;;;;9.35;7.38;;;;;;;;;;10406509;28;20073;-83
2022/01/27 10:30:50;;;;;;;11.45;7.53;;;;;;;;;;10408324;28;20111;-83
2022/01/27 10:35:27;;;;;;;10.02;7.38;;;;;;;;;;10395723;28;20053;-83
2022/01/27 10:40:33;;;;;;;13.30;9.80;;;;;;;;;;10409800;28;20053;-82
2022/01/27 10:45:34;;;;;;;10.43;7.93;;;;;;;;;;10408499;28;20030;-82
2022/01/27 10:50:54;;;;;;;8.07;6.57;;;;;;;;;;10407987;28;20026;-83
2022/01/27 10:56:03;;;;;;;9.35;7.13;;;;;;;;;;10413460;28;20053;-82
2022/01/27 11:01:07;;;;;;;9.67;7.60;;;;;;;;;;10412877;28;20036;-83
2022/01/27 11:06:09;;;;;;;8.68;6.03;;;;;;;;;;10427820;28;20032;-83
2022/01/27 11:11:10;;;;;;;11.25;8.60;;;;;;;;;;10393289;28;20089;-83
2022/01/27 11:16:15;;;;;;;8.18;5.95;;;;;;;;;;10407580;28;20042;-82
2022/01/27 11:21:36;;;;;;;7.43;6.25;;;;;;;;;;10405947;28;20026;-82
2022/01/27 11:26:40;;;;;;;;;;;;;;;;;;10394898;28;20029;-83
2022/01/27 11:32:08;;;;;;;9.88;8.10;;;;;;;;;;10396416;28;19916;-82
2022/01/27 11:37:09;;;;;;;9.32;8.27;;;;;;;;;;10414768;28;20034;-82
2022/01/27 11:42:10;;;;;;;5.70;4.65;;;;;;;;;;10416386;28;20037;-83
2022/01/27 11:47:13;;;;;;;9.57;7.13;;;;;;;;;;10414955;28;20068;-82
2022/01/27 11:52:27;;;;;;;5.72;4.80;;;;;;;;;;10412873;28;20037;-82
2022/01/27 11:57:39;;;;;;;11.43;8.50;;;;;;;;;;10414338;28;20068;-82
2022/01/27 12:03:12;;;;;;;6.75;6.05;;;;;;;;;;10413261;28;20018;-82
2022/01/27 12:08:17;;;;;;;9.15;6.95;;;;;;;;;;10390900;28;20037;-81
2022/01/27 12:13:49;;;;;;;8.63;6.78;;;;;;;;;;10394548;28;20033;-81
2022/01/27 12:18:59;;;;;;;4.65;4.15;;;;;;;;;;10396128;28;20049;-80
2022/01/27 12:24:18;;;;;;;6.93;5.53;;;;;;;;;;10411372;28;20036;-80
2022/01/27 12:29:22;;;;;;;5.78;4.97;;;;;;;;;;10400092;28;20030;-82
2022/01/27 12:34:24;;;;;;;6.55;4.60;;;;;;;;;;10411878;28;20030;-79
2022/01/27 12:39:26;;;;;;;6.68;5.38;;;;;;;;;;10385310;28;20025;-79
2022/01/27 12:44:28;;;;;;;6.88;5.78;;;;;;;;;;10385398;28;20036;-79
2022/01/27 12:49:38;;;;;;;8.00;5.72;;;;;;;;;;10398878;28;20530;-79
2022/01/27 12:54:40;;;;;;;7.00;6.20;;;;;;;;;;10385825;28;20025;-79
2022/01/27 12:59:42;;;;;;;6.10;5.50;;;;;;;;;;10401801;28;20033;-80
2022/01/27 13:04:43;;;;;;;6.60;5.82;;;;;;;;;;10402742;28;20489;-81
2022/01/27 13:09:44;;;;;;;;;;;;;;;;;;10386633;28;20052;-81
2022/01/27 13:14:48;;;;;;;8.68;7.15;;;;;;;;;;10388554;28;20000;-80
2022/01/27 13:19:56;;;;;;;4.72;4.13;;;;;;;;;;10402819;28;20167;-78
2022/01/27 13:24:58;;;;;;;8.65;6.15;;;;;;;;;;10389021;28;20061;-78
2022/01/27 13:30:00;;;;;;;7.35;5.90;;;;;;;;;;10405979;28;20026;-79
2022/01/27 13:35:03;;;;;;;7.88;5.90;;;;;;;;;;10401579;28;20038;-79
2022/01/27 13:45:44;;;;;;;5.68;5.05;;;;;;;;;;10381654;28;20038;-79
2022/01/27 13:50:55;;;;;;;4.90;4.10;;;;;;;;;;10377950;28;20049;-78
2022/01/27 13:55:56;;;;;;;;;;;;;;;;;;10402685;28;20040;-79
2022/01/27 14:01:04;;;;;;;6.47;3.55;;;;;;;;;;10389202;28;19905;-79
2022/01/27 14:06:05;;;;;;;7.68;6.30;;;;;;;;;;10405061;28;20038;-80
2022/01/27 14:11:08;;;;;;;8.13;5.38;;;;;;;;;;10405222;28;20022;-79
2022/01/27 14:16:09;;;;;;;5.13;4.47;;;;;;;;;;10402358;28;20057;-79
2022/01/27 14:21:10;;;;;;;4.88;4.38;;;;;;;;;;10387176;28;20480;-78
2022/01/27 14:26:36;;;;;;;5.75;4.00;;;;;;;;;;10400562;28;20042;-79
2022/01/27 14:31:38;;;;;;;5.65;4.95;;;;;;;;;;10388684;28;20026;-79
2022/01/27 14:36:41;;;;;;;6.18;4.38;;;;;;;;;;10405913;28;20022;-80
2022/01/27 14:41:42;;;;;;;4.97;3.80;;;;;;;;;;10392034;28;20089;-79
2022/01/27 14:46:46;;;;;;;4.72;3.20;;;;;;;;;;10400172;28;20032;-79
2022/01/27 14:51:51;;;;;;;5.85;4.00;;;;;;;;;;10394703;28;20057;-78
2022/01/27 14:56:52;;;;;;;3.35;2.90;;;;;;;;;;10395320;28;20062;-79
2022/01/27 15:01:53;;;;;;;;;;;;;;;;;;10395951;28;20411;-80
2022/01/27 15:06:54;;;;;;;5.50;3.67;;;;;;;;;;10381223;28;19912;-79
2022/01/27 15:11:55;;;;;;;;;;;;;;;;;;10405650;28;20084;-80
2022/01/27 15:22:24;;;;;;;6.15;3.47;;;;;;;;;;10486685;28;20025;-83
2022/01/27 15:27:25;;;;;;;6.50;4.90;;;;;;;;;;10479560;28;20033;-82
2022/01/27 15:32:28;;;;;;;3.65;2.63;;;;;;;;;;10458349;28;20402;-84
2022/01/27 15:37:30;;;;;;;5.20;3.80;;;;;;;;;;10458746;28;20029;-81
2022/01/27 15:42:32;;;;;;;5.47;3.45;;;;;;;;;;10467844;28;20029;-82
2022/01/27 15:47:33;;;;;;;6.00;3.70;;;;;;;;;;10461886;28;20059;-81
2022/01/27 15:52:35;;;;;;;5.13;4.43;;;;;;;;;;10471412;28;20104;-82
2022/01/27 15:57:36;;;;;;;7.35;4.47;;;;;;;;;;10476611;28;20036;-83
2022/01/27 16:02:37;;;;;;;6.10;4.47;;;;;;;;;;10463400;28;20123;-82
2022/01/27 16:07:38;;;;;;;7.43;4.60;;;;;;;;;;10456175;28;20031;-82
2022/01/27 16:12:41;;;;;;;;;;;;;;;;;;10459194;28;20029;-82
2022/01/27 16:17:42;;;;;;;6.70;3.83;;;;;;;;;;10473941;28;19999;-82
2022/01/27 16:22:44;;;;;;;;;;;;;;;;;;10466234;28;20025;-81
2022/01/27 16:27:45;;;;;;;9.80;5.40;;;;;;;;;;10460852;28;19911;-82
2022/01/27 16:32:45;;;;;;;;;;;;;;;;;;10481052;28;20025;-83
2022/01/27 16:37:49;;;;;;;7.32;4.00;;;;;;;;;;10459900;28;19909;-83
2022/01/27 16:42:51;;;;;;;7.13;3.83;;;;;;;;;;10479554;28;20013;-83
2022/01/27 16:47:52;;;;;;;9.13;6.22;;;;;;;;;;10458823;28;20059;-84
2022/01/27 16:52:54;;;;;;;;;;;;;;;;;;10464644;28;20079;-85
2022/01/27 16:57:56;;;;;;;6.15;3.67;;;;;;;;;;10462898;28;19915;-84
2022/01/27 17:02:58;;;;;;;5.13;2.60;;;;;;;;;;10478358;28;20021;-82
2022/01/27 17:08:00;;;;;;;4.07;2.10;;;;;;;;;;10467799;28;20018;-80
